sensor_id;sensor_type;location;lat;lon;timestamp;P1;durP1;ratioP1;P2;durP2;ratioP2
74471;SDS011;62920;53.572;10.050;2023-07-20T00:00:33;2.78;;;0.98;;
74471;SDS011;62920;53.572;10.050;2023-07-20T00:03:13;3.90;;;1.13;;
74471;SDS011;62920;53.572;10.050;2023-07-20T00:05:42;3.28;;;1.20;;
74471;SDS011;62920;53.572;10.050;2023-07-20T00:08:08;2.85;;;0.80;;
74471;SDS011;62920;53.572;10.050;2023-07-20T00:10:33;3.65;;;0.95;;
74471;SDS011;62920;53.572;10.050;2023-07-20T00:12:58;2.53;;;1.00;;
74471;SDS011;62920;53.572;10.050;2023-07-20T00:15:24;3.50;;;1.10;;
74471;SDS011;62920;53.572;10.050;2023-07-20T00:17:49;2.60;;;0.95;;
74471;SDS011;62920;53.572;10.050;2023-07-20T00:20:15;3.70;;;1.23;;
74471;SDS011;62920;53.572;10.050;2023-07-20T00:22:40;3.58;;;1.05;;
74471;SDS011;62920;53.572;10.050;2023-07-20T00:25:05;3.17;;;1.00;;
74471;SDS011;62920;53.572;10.050;2023-07-20T00:27:31;2.80;;;0.77;;
74471;SDS011;62920;53.572;10.050;2023-07-20T00:29:56;2.58;;;0.70;;
74471;SDS011;62920;53.572;10.050;2023-07-20T00:32:22;2.95;;;1.10;;
74471;SDS011;62920;53.572;10.050;2023-07-20T00:34:47;2.78;;;0.95;;
74471;SDS011;62920;53.572;10.050;2023-07-20T00:37:13;3.10;;;0.90;;
74471;SDS011;62920;53.572;10.050;2023-07-20T00:39:38;3.28;;;0.80;;
74471;SDS011;62920;53.572;10.050;2023-07-20T00:42:03;3.40;;;0.85;;
74471;SDS011;62920;53.572;10.050;2023-07-20T00:44:29;1.85;;;0.73;;
74471;SDS011;62920;53.572;10.050;2023-07-20T00:46:55;3.95;;;0.80;;
74471;SDS011;62920;53.572;10.050;2023-07-20T00:49:20;4.43;;;0.82;;
74471;SDS011;62920;53.572;10.050;2023-07-20T00:51:47;2.20;;;0.70;;
74471;SDS011;62920;53.572;10.050;2023-07-20T00:54:13;7.97;;;1.00;;
74471;SDS011;62920;53.572;10.050;2023-07-20T00:56:40;2.95;;;1.10;;
74471;SDS011;62920;53.572;10.050;2023-07-20T00:59:05;3.28;;;1.00;;
74471;SDS011;62920;53.572;10.050;2023-07-20T01:01:30;3.38;;;0.90;;
74471;SDS011;62920;53.572;10.050;2023-07-20T01:03:56;2.67;;;1.00;;
74471;SDS011;62920;53.572;10.050;2023-07-20T01:06:26;3.75;;;1.20;;
74471;SDS011;62920;53.572;10.050;2023-07-20T01:11:43;3.40;;;0.98;;
74471;SDS011;62920;53.572;10.050;2023-07-20T01:14:21;4.05;;;1.20;;
74471;SDS011;62920;53.572;10.050;2023-07-20T01:16:46;3.20;;;1.10;;
74471;SDS011;62920;53.572;10.050;2023-07-20T01:19:14;2.20;;;0.90;;
74471;SDS011;62920;53.572;10.050;2023-07-20T01:21:44;4.13;;;1.35;;
74471;SDS011;62920;53.572;10.050;2023-07-20T01:24:29;3.60;;;1.25;;
74471;SDS011;62920;53.572;10.050;2023-07-20T01:27:34;4.05;;;1.20;;
74471;SDS011;62920;53.572;10.050;2023-07-20T01:33:02;5.03;;;1.30;;
74471;SDS011;62920;53.572;10.050;2023-07-20T01:35:28;3.47;;;1.48;;
74471;SDS011;62920;53.572;10.050;2023-07-20T01:40:20;5.07;;;1.42;;
74471;SDS011;62920;53.572;10.050;2023-07-20T01:42:46;4.93;;;1.40;;
74471;SDS011;62920;53.572;10.050;2023-07-20T01:45:12;3.85;;;1.30;;
74471;SDS011;62920;53.572;10.050;2023-07-20T01:47:37;4.50;;;1.50;;
74471;SDS011;62920;53.572;10.050;2023-07-20T01:50:03;3.55;;;1.38;;
74471;SDS011;62920;53.572;10.050;2023-07-20T01:52:28;3.08;;;1.23;;
74471;SDS011;62920;53.572;10.050;2023-07-20T01:54:54;3.40;;;1.48;;
74471;SDS011;62920;53.572;10.050;2023-07-20T01:57:20;3.60;;;1.40;;
74471;SDS011;62920;53.572;10.050;2023-07-20T01:59:45;4.47;;;1.75;;
74471;SDS011;62920;53.572;10.050;2023-07-20T02:02:11;3.40;;;1.50;;
74471;SDS011;62920;53.572;10.050;2023-07-20T02:04:36;3.42;;;1.60;;
74471;SDS011;62920;53.572;10.050;2023-07-20T02:07:01;3.05;;;1.40;;
74471;SDS011;62920;53.572;10.050;2023-07-20T02:09:27;3.28;;;1.20;;
74471;SDS011;62920;53.572;10.050;2023-07-20T02:11:52;3.03;;;1.40;;
74471;SDS011;62920;53.572;10.050;2023-07-20T02:14:18;3.15;;;1.30;;
74471;SDS011;62920;53.572;10.050;2023-07-20T02:16:43;4.13;;;1.60;;
74471;SDS011;62920;53.572;10.050;2023-07-20T02:19:08;3.13;;;1.20;;
74471;SDS011;62920;53.572;10.050;2023-07-20T02:21:34;3.33;;;1.40;;
74471;SDS011;62920;53.572;10.050;2023-07-20T02:23:59;2.97;;;1.30;;
74471;SDS011;62920;53.572;10.050;2023-07-20T02:26:25;3.47;;;1.70;;
74471;SDS011;62920;53.572;10.050;2023-07-20T02:28:50;4.47;;;1.63;;
74471;SDS011;62920;53.572;10.050;2023-07-20T02:31:15;3.15;;;1.40;;
74471;SDS011;62920;53.572;10.050;2023-07-20T02:33:41;2.97;;;1.60;;
74471;SDS011;62920;53.572;10.050;2023-07-20T02:36:06;3.80;;;1.35;;
74471;SDS011;62920;53.572;10.050;2023-07-20T02:38:32;4.57;;;1.50;;
74471;SDS011;62920;53.572;10.050;2023-07-20T02:40:57;2.65;;;1.33;;
74471;SDS011;62920;53.572;10.050;2023-07-20T02:43:22;3.72;;;1.50;;
74471;SDS011;62920;53.572;10.050;2023-07-20T02:45:48;3.80;;;1.55;;
74471;SDS011;62920;53.572;10.050;2023-07-20T02:48:13;2.35;;;1.20;;
74471;SDS011;62920;53.572;10.050;2023-07-20T02:50:39;3.70;;;1.30;;
74471;SDS011;62920;53.572;10.050;2023-07-20T02:53:04;2.95;;;1.40;;
74471;SDS011;62920;53.572;10.050;2023-07-20T02:55:30;4.57;;;1.42;;
74471;SDS011;62920;53.572;10.050;2023-07-20T02:57:55;3.05;;;1.17;;
74471;SDS011;62920;53.572;10.050;2023-07-20T03:00:20;2.88;;;1.50;;
74471;SDS011;62920;53.572;10.050;2023-07-20T03:02:48;3.25;;;1.70;;
74471;SDS011;62920;53.572;10.050;2023-07-20T03:05:14;4.30;;;1.30;;
74471;SDS011;62920;53.572;10.050;2023-07-20T03:07:39;4.18;;;1.60;;
74471;SDS011;62920;53.572;10.050;2023-07-20T03:10:05;2.97;;;1.50;;
74471;SDS011;62920;53.572;10.050;2023-07-20T03:12:34;3.13;;;1.63;;
74471;SDS011;62920;53.572;10.050;2023-07-20T03:15:00;2.65;;;1.23;;
74471;SDS011;62920;53.572;10.050;2023-07-20T03:17:26;2.47;;;1.23;;
74471;SDS011;62920;53.572;10.050;2023-07-20T03:19:51;3.35;;;1.20;;
74471;SDS011;62920;53.572;10.050;2023-07-20T03:22:16;3.22;;;1.38;;
74471;SDS011;62920;53.572;10.050;2023-07-20T03:24:42;3.65;;;1.30;;
74471;SDS011;62920;53.572;10.050;2023-07-20T03:27:08;4.32;;;1.50;;
74471;SDS011;62920;53.572;10.050;2023-07-20T03:29:33;3.53;;;1.60;;
74471;SDS011;62920;53.572;10.050;2023-07-20T03:31:59;3.25;;;1.50;;
74471;SDS011;62920;53.572;10.050;2023-07-20T03:34:24;3.33;;;1.58;;
74471;SDS011;62920;53.572;10.050;2023-07-20T03:36:50;3.38;;;1.40;;
74471;SDS011;62920;53.572;10.050;2023-07-20T03:39:15;2.90;;;1.50;;
74471;SDS011;62920;53.572;10.050;2023-07-20T03:41:41;2.60;;;1.45;;
74471;SDS011;62920;53.572;10.050;2023-07-20T03:44:06;2.90;;;1.30;;
74471;SDS011;62920;53.572;10.050;2023-07-20T03:46:31;4.40;;;1.38;;
74471;SDS011;62920;53.572;10.050;2023-07-20T03:48:59;2.70;;;1.40;;
74471;SDS011;62920;53.572;10.050;2023-07-20T03:51:24;3.00;;;1.33;;
74471;SDS011;62920;53.572;10.050;2023-07-20T03:53:49;3.15;;;1.25;;
74471;SDS011;62920;53.572;10.050;2023-07-20T03:56:15;4.38;;;1.27;;
74471;SDS011;62920;53.572;10.050;2023-07-20T03:58:40;3.55;;;1.35;;
74471;SDS011;62920;53.572;10.050;2023-07-20T04:01:06;3.67;;;1.10;;
74471;SDS011;62920;53.572;10.050;2023-07-20T04:03:32;3.85;;;1.55;;
74471;SDS011;62920;53.572;10.050;2023-07-20T04:05:57;2.92;;;1.42;;
74471;SDS011;62920;53.572;10.050;2023-07-20T04:08:23;2.95;;;1.45;;
74471;SDS011;62920;53.572;10.050;2023-07-20T04:10:49;3.30;;;1.45;;
74471;SDS011;62920;53.572;10.050;2023-07-20T04:13:15;3.22;;;1.50;;
74471;SDS011;62920;53.572;10.050;2023-07-20T04:15:41;4.22;;;1.60;;
74471;SDS011;62920;53.572;10.050;2023-07-20T04:20:32;4.20;;;1.50;;
74471;SDS011;62920;53.572;10.050;2023-07-20T04:22:58;3.65;;;1.83;;
74471;SDS011;62920;53.572;10.050;2023-07-20T04:25:23;4.60;;;1.77;;
74471;SDS011;62920;53.572;10.050;2023-07-20T04:27:48;4.13;;;1.73;;
74471;SDS011;62920;53.572;10.050;2023-07-20T04:30:16;3.38;;;1.67;;
74471;SDS011;62920;53.572;10.050;2023-07-20T04:32:45;4.78;;;2.40;;
74471;SDS011;62920;53.572;10.050;2023-07-20T04:35:16;3.72;;;1.63;;
74471;SDS011;62920;53.572;10.050;2023-07-20T04:37:42;3.92;;;1.85;;
74471;SDS011;62920;53.572;10.050;2023-07-20T04:40:11;5.93;;;1.92;;
74471;SDS011;62920;53.572;10.050;2023-07-20T04:42:40;3.42;;;1.58;;
74471;SDS011;62920;53.572;10.050;2023-07-20T04:45:06;3.17;;;1.55;;
74471;SDS011;62920;53.572;10.050;2023-07-20T04:47:31;3.65;;;1.73;;
74471;SDS011;62920;53.572;10.050;2023-07-20T04:49:57;2.95;;;1.42;;
74471;SDS011;62920;53.572;10.050;2023-07-20T04:52:22;4.35;;;1.30;;
74471;SDS011;62920;53.572;10.050;2023-07-20T04:54:48;2.90;;;1.30;;
74471;SDS011;62920;53.572;10.050;2023-07-20T04:57:13;3.40;;;1.33;;
74471;SDS011;62920;53.572;10.050;2023-07-20T04:59:39;3.03;;;1.27;;
74471;SDS011;62920;53.572;10.050;2023-07-20T05:02:04;2.88;;;1.30;;
74471;SDS011;62920;53.572;10.050;2023-07-20T05:04:30;2.58;;;1.20;;
74471;SDS011;62920;53.572;10.050;2023-07-20T05:06:55;5.45;;;1.10;;
74471;SDS011;62920;53.572;10.050;2023-07-20T05:09:20;3.25;;;0.85;;
74471;SDS011;62920;53.572;10.050;2023-07-20T05:11:46;3.25;;;1.00;;
74471;SDS011;62920;53.572;10.050;2023-07-20T05:14:13;2.40;;;1.05;;
74471;SDS011;62920;53.572;10.050;2023-07-20T05:16:38;2.20;;;0.82;;
74471;SDS011;62920;53.572;10.050;2023-07-20T05:19:04;2.60;;;1.13;;
74471;SDS011;62920;53.572;10.050;2023-07-20T05:21:29;3.58;;;0.90;;
74471;SDS011;62920;53.572;10.050;2023-07-20T05:23:55;3.05;;;1.10;;
74471;SDS011;62920;53.572;10.050;2023-07-20T05:26:20;3.95;;;1.40;;
74471;SDS011;62920;53.572;10.050;2023-07-20T05:28:45;2.20;;;1.10;;
74471;SDS011;62920;53.572;10.050;2023-07-20T05:31:11;4.20;;;1.40;;
74471;SDS011;62920;53.572;10.050;2023-07-20T05:33:36;3.08;;;1.27;;
74471;SDS011;62920;53.572;10.050;2023-07-20T05:36:01;3.25;;;1.10;;
74471;SDS011;62920;53.572;10.050;2023-07-20T05:38:27;2.58;;;1.08;;
74471;SDS011;62920;53.572;10.050;2023-07-20T05:40:52;3.83;;;1.38;;
74471;SDS011;62920;53.572;10.050;2023-07-20T05:43:18;3.25;;;1.10;;
74471;SDS011;62920;53.572;10.050;2023-07-20T05:45:43;3.45;;;1.20;;
74471;SDS011;62920;53.572;10.050;2023-07-20T05:48:10;3.75;;;1.30;;
74471;SDS011;62920;53.572;10.050;2023-07-20T05:50:36;2.97;;;1.23;;
74471;SDS011;62920;53.572;10.050;2023-07-20T05:53:02;3.13;;;1.20;;
74471;SDS011;62920;53.572;10.050;2023-07-20T05:55:28;4.85;;;1.40;;
74471;SDS011;62920;53.572;10.050;2023-07-20T05:57:53;4.63;;;1.48;;
74471;SDS011;62920;53.572;10.050;2023-07-20T06:00:20;5.00;;;1.45;;
74471;SDS011;62920;53.572;10.050;2023-07-20T06:02:51;5.15;;;1.40;;
74471;SDS011;62920;53.572;10.050;2023-07-20T06:05:20;2.75;;;1.08;;
74471;SDS011;62920;53.572;10.050;2023-07-20T06:07:46;3.22;;;1.10;;
74471;SDS011;62920;53.572;10.050;2023-07-20T06:10:11;3.63;;;1.20;;
74471;SDS011;62920;53.572;10.050;2023-07-20T06:12:36;3.75;;;1.13;;
74471;SDS011;62920;53.572;10.050;2023-07-20T06:15:03;3.88;;;1.17;;
74471;SDS011;62920;53.572;10.050;2023-07-20T06:17:29;4.25;;;1.30;;
74471;SDS011;62920;53.572;10.050;2023-07-20T06:19:54;4.07;;;1.02;;
74471;SDS011;62920;53.572;10.050;2023-07-20T06:22:20;3.97;;;1.00;;
74471;SDS011;62920;53.572;10.050;2023-07-20T06:24:45;4.28;;;1.00;;
74471;SDS011;62920;53.572;10.050;2023-07-20T06:27:10;4.68;;;0.90;;
74471;SDS011;62920;53.572;10.050;2023-07-20T06:29:37;3.53;;;0.90;;
74471;SDS011;62920;53.572;10.050;2023-07-20T06:32:03;3.15;;;1.00;;
74471;SDS011;62920;53.572;10.050;2023-07-20T06:34:28;3.10;;;1.10;;
74471;SDS011;62920;53.572;10.050;2023-07-20T06:36:54;3.63;;;1.15;;
74471;SDS011;62920;53.572;10.050;2023-07-20T06:39:20;3.55;;;0.98;;
74471;SDS011;62920;53.572;10.050;2023-07-20T06:44:11;2.97;;;0.80;;
74471;SDS011;62920;53.572;10.050;2023-07-20T06:46:37;3.83;;;0.95;;
74471;SDS011;62920;53.572;10.050;2023-07-20T06:49:05;3.28;;;1.00;;
74471;SDS011;62920;53.572;10.050;2023-07-20T06:51:31;2.47;;;0.70;;
74471;SDS011;62920;53.572;10.050;2023-07-20T06:53:56;5.45;;;0.90;;
74471;SDS011;62920;53.572;10.050;2023-07-20T06:56:22;3.10;;;0.70;;
74471;SDS011;62920;53.572;10.050;2023-07-20T06:58:47;2.00;;;0.65;;
74471;SDS011;62920;53.572;10.050;2023-07-20T07:01:13;2.35;;;0.77;;
74471;SDS011;62920;53.572;10.050;2023-07-20T07:03:38;3.97;;;0.90;;
74471;SDS011;62920;53.572;10.050;2023-07-20T07:06:04;3.28;;;0.80;;
74471;SDS011;62920;53.572;10.050;2023-07-20T07:08:29;2.92;;;0.95;;
74471;SDS011;62920;53.572;10.050;2023-07-20T07:10:54;3.67;;;1.08;;
74471;SDS011;62920;53.572;10.050;2023-07-20T07:13:20;3.97;;;0.80;;
74471;SDS011;62920;53.572;10.050;2023-07-20T07:15:45;6.85;;;1.02;;
74471;SDS011;62920;53.572;10.050;2023-07-20T07:18:11;3.90;;;0.85;;
74471;SDS011;62920;53.572;10.050;2023-07-20T07:20:36;3.35;;;0.80;;
74471;SDS011;62920;53.572;10.050;2023-07-20T07:23:02;2.75;;;0.77;;
74471;SDS011;62920;53.572;10.050;2023-07-20T07:25:27;3.33;;;0.77;;
74471;SDS011;62920;53.572;10.050;2023-07-20T07:27:53;2.42;;;0.75;;
74471;SDS011;62920;53.572;10.050;2023-07-20T07:30:19;2.35;;;0.73;;
74471;SDS011;62920;53.572;10.050;2023-07-20T07:32:45;5.68;;;0.82;;
74471;SDS011;62920;53.572;10.050;2023-07-20T07:35:10;6.03;;;0.85;;
74471;SDS011;62920;53.572;10.050;2023-07-20T07:37:36;4.05;;;0.90;;
74471;SDS011;62920;53.572;10.050;2023-07-20T07:40:02;3.47;;;0.90;;
74471;SDS011;62920;53.572;10.050;2023-07-20T07:44:54;5.57;;;0.95;;
74471;SDS011;62920;53.572;10.050;2023-07-20T07:47:19;4.65;;;0.80;;
74471;SDS011;62920;53.572;10.050;2023-07-20T07:49:44;5.82;;;0.88;;
74471;SDS011;62920;53.572;10.050;2023-07-20T07:52:10;7.88;;;1.27;;
74471;SDS011;62920;53.572;10.050;2023-07-20T07:54:35;3.88;;;1.02;;
74471;SDS011;62920;53.572;10.050;2023-07-20T07:57:00;6.50;;;1.08;;
74471;SDS011;62920;53.572;10.050;2023-07-20T07:59:26;6.18;;;0.90;;
74471;SDS011;62920;53.572;10.050;2023-07-20T08:01:51;4.15;;;1.17;;
74471;SDS011;62920;53.572;10.050;2023-07-20T08:04:17;3.78;;;0.90;;
74471;SDS011;62920;53.572;10.050;2023-07-20T08:06:42;3.85;;;1.15;;
74471;SDS011;62920;53.572;10.050;2023-07-20T08:09:08;5.47;;;1.17;;
74471;SDS011;62920;53.572;10.050;2023-07-20T08:11:33;4.07;;;1.23;;
74471;SDS011;62920;53.572;10.050;2023-07-20T08:13:59;3.30;;;1.25;;
74471;SDS011;62920;53.572;10.050;2023-07-20T08:16:25;4.82;;;1.30;;
74471;SDS011;62920;53.572;10.050;2023-07-20T08:18:51;6.15;;;1.35;;
74471;SDS011;62920;53.572;10.050;2023-07-20T08:21:16;6.18;;;1.33;;
74471;SDS011;62920;53.572;10.050;2023-07-20T08:23:42;7.10;;;1.40;;
74471;SDS011;62920;53.572;10.050;2023-07-20T08:26:07;4.45;;;1.63;;
74471;SDS011;62920;53.572;10.050;2023-07-20T08:28:33;3.75;;;1.20;;
74471;SDS011;62920;53.572;10.050;2023-07-20T08:30:59;5.68;;;1.50;;
74471;SDS011;62920;53.572;10.050;2023-07-20T08:33:24;3.72;;;1.20;;
74471;SDS011;62920;53.572;10.050;2023-07-20T08:35:50;7.30;;;1.50;;
74471;SDS011;62920;53.572;10.050;2023-07-20T08:38:15;3.40;;;1.30;;
74471;SDS011;62920;53.572;10.050;2023-07-20T08:40:41;6.22;;;1.40;;
74471;SDS011;62920;53.572;10.050;2023-07-20T08:43:08;8.23;;;1.30;;
74471;SDS011;62920;53.572;10.050;2023-07-20T08:45:35;6.65;;;1.65;;
74471;SDS011;62920;53.572;10.050;2023-07-20T08:48:01;3.95;;;1.15;;
74471;SDS011;62920;53.572;10.050;2023-07-20T08:50:28;7.10;;;1.45;;
74471;SDS011;62920;53.572;10.050;2023-07-20T08:52:56;5.28;;;1.10;;
74471;SDS011;62920;53.572;10.050;2023-07-20T08:55:23;5.60;;;1.42;;
74471;SDS011;62920;53.572;10.050;2023-07-20T08:57:59;7.25;;;1.58;;
74471;SDS011;62920;53.572;10.050;2023-07-20T09:00:26;4.47;;;1.25;;
74471;SDS011;62920;53.572;10.050;2023-07-20T09:02:53;6.00;;;1.40;;
74471;SDS011;62920;53.572;10.050;2023-07-20T09:05:19;7.05;;;1.40;;
74471;SDS011;62920;53.572;10.050;2023-07-20T09:07:45;6.18;;;1.60;;
74471;SDS011;62920;53.572;10.050;2023-07-20T09:10:11;7.35;;;1.80;;
74471;SDS011;62920;53.572;10.050;2023-07-20T09:12:41;7.50;;;1.83;;
74471;SDS011;62920;53.572;10.050;2023-07-20T09:15:07;7.82;;;1.40;;
74471;SDS011;62920;53.572;10.050;2023-07-20T09:17:33;5.05;;;1.50;;
74471;SDS011;62920;53.572;10.050;2023-07-20T09:20:01;5.20;;;1.23;;
74471;SDS011;62920;53.572;10.050;2023-07-20T09:22:32;5.07;;;1.25;;
74471;SDS011;62920;53.572;10.050;2023-07-20T09:24:58;3.70;;;1.23;;
74471;SDS011;62920;53.572;10.050;2023-07-20T09:27:36;4.78;;;1.50;;
74471;SDS011;62920;53.572;10.050;2023-07-20T09:30:03;5.55;;;1.40;;
74471;SDS011;62920;53.572;10.050;2023-07-20T09:32:29;5.35;;;1.50;;
74471;SDS011;62920;53.572;10.050;2023-07-20T09:34:54;4.78;;;1.00;;
74471;SDS011;62920;53.572;10.050;2023-07-20T09:37:20;6.57;;;1.50;;
74471;SDS011;62920;53.572;10.050;2023-07-20T09:39:47;5.70;;;1.30;;
74471;SDS011;62920;53.572;10.050;2023-07-20T09:42:14;5.32;;;0.85;;
74471;SDS011;62920;53.572;10.050;2023-07-20T09:44:40;6.53;;;1.00;;
74471;SDS011;62920;53.572;10.050;2023-07-20T09:47:08;6.13;;;0.93;;
74471;SDS011;62920;53.572;10.050;2023-07-20T09:49:43;4.03;;;0.93;;
74471;SDS011;62920;53.572;10.050;2023-07-20T09:52:08;3.60;;;0.90;;
74471;SDS011;62920;53.572;10.050;2023-07-20T09:54:35;5.10;;;1.30;;
74471;SDS011;62920;53.572;10.050;2023-07-20T09:57:02;3.28;;;0.80;;
74471;SDS011;62920;53.572;10.050;2023-07-20T09:59:28;4.05;;;0.70;;
74471;SDS011;62920;53.572;10.050;2023-07-20T10:01:54;2.78;;;0.50;;
74471;SDS011;62920;53.572;10.050;2023-07-20T10:04:23;2.78;;;0.60;;
74471;SDS011;62920;53.572;10.050;2023-07-20T10:06:49;6.65;;;0.70;;
74471;SDS011;62920;53.572;10.050;2023-07-20T10:09:14;6.43;;;1.02;;
74471;SDS011;62920;53.572;10.050;2023-07-20T10:11:41;5.28;;;0.70;;
74471;SDS011;62920;53.572;10.050;2023-07-20T10:14:11;5.93;;;1.17;;
74471;SDS011;62920;53.572;10.050;2023-07-20T10:16:39;6.50;;;0.70;;
74471;SDS011;62920;53.572;10.050;2023-07-20T10:19:07;3.22;;;0.75;;
74471;SDS011;62920;53.572;10.050;2023-07-20T10:21:38;4.70;;;0.68;;
74471;SDS011;62920;53.572;10.050;2023-07-20T10:24:05;2.42;;;0.60;;
74471;SDS011;62920;53.572;10.050;2023-07-20T10:26:32;3.33;;;0.80;;
74471;SDS011;62920;53.572;10.050;2023-07-20T10:28:57;4.10;;;0.60;;
74471;SDS011;62920;53.572;10.050;2023-07-20T10:31:23;2.78;;;0.60;;
74471;SDS011;62920;53.572;10.050;2023-07-20T10:33:49;2.92;;;0.60;;
74471;SDS011;62920;53.572;10.050;2023-07-20T10:38:41;2.58;;;0.60;;
74471;SDS011;62920;53.572;10.050;2023-07-20T10:41:17;4.20;;;0.60;;
74471;SDS011;62920;53.572;10.050;2023-07-20T10:43:46;4.28;;;0.63;;
74471;SDS011;62920;53.572;10.050;2023-07-20T10:46:13;4.32;;;0.60;;
74471;SDS011;62920;53.572;10.050;2023-07-20T10:51:42;3.75;;;0.50;;
74471;SDS011;62920;53.572;10.050;2023-07-20T10:56:40;2.22;;;0.60;;
74471;SDS011;62920;53.572;10.050;2023-07-20T10:59:17;3.50;;;0.70;;
74471;SDS011;62920;53.572;10.050;2023-07-20T11:01:46;2.05;;;0.40;;
74471;SDS011;62920;53.572;10.050;2023-07-20T11:04:12;4.60;;;0.70;;
74471;SDS011;62920;53.572;10.050;2023-07-20T11:06:38;4.63;;;0.70;;
74471;SDS011;62920;53.572;10.050;2023-07-20T11:09:09;4.88;;;0.80;;
74471;SDS011;62920;53.572;10.050;2023-07-20T11:11:36;5.95;;;0.90;;
74471;SDS011;62920;53.572;10.050;2023-07-20T11:14:04;3.38;;;0.70;;
74471;SDS011;62920;53.572;10.050;2023-07-20T11:16:34;3.55;;;0.60;;
74471;SDS011;62920;53.572;10.050;2023-07-20T11:19:01;3.05;;;0.57;;
74471;SDS011;62920;53.572;10.050;2023-07-20T11:21:28;4.28;;;1.15;;
74471;SDS011;62920;53.572;10.050;2023-07-20T11:23:54;3.97;;;0.40;;
74471;SDS011;62920;53.572;10.050;2023-07-20T11:26:20;2.42;;;0.52;;
74471;SDS011;62920;53.572;10.050;2023-07-20T11:28:49;2.60;;;0.63;;
74471;SDS011;62920;53.572;10.050;2023-07-20T11:31:17;2.47;;;0.45;;
74471;SDS011;62920;53.572;10.050;2023-07-20T11:33:45;3.28;;;0.40;;
74471;SDS011;62920;53.572;10.050;2023-07-20T11:36:11;3.50;;;0.55;;
74471;SDS011;62920;53.572;10.050;2023-07-20T11:38:37;2.03;;;0.40;;
74471;SDS011;62920;53.572;10.050;2023-07-20T11:41:04;1.90;;;0.50;;
74471;SDS011;62920;53.572;10.050;2023-07-20T11:43:30;2.70;;;0.50;;
74471;SDS011;62920;53.572;10.050;2023-07-20T11:45:55;1.98;;;0.50;;
74471;SDS011;62920;53.572;10.050;2023-07-20T11:48:21;2.75;;;0.50;;
74471;SDS011;62920;53.572;10.050;2023-07-20T11:50:47;2.78;;;0.50;;
74471;SDS011;62920;53.572;10.050;2023-07-20T11:53:13;2.58;;;0.40;;
74471;SDS011;62920;53.572;10.050;2023-07-20T11:58:08;3.00;;;0.40;;
74471;SDS011;62920;53.572;10.050;2023-07-20T12:00:35;2.70;;;0.50;;
74471;SDS011;62920;53.572;10.050;2023-07-20T12:03:03;2.72;;;0.60;;
74471;SDS011;62920;53.572;10.050;2023-07-20T12:05:31;3.88;;;0.50;;
74471;SDS011;62920;53.572;10.050;2023-07-20T12:07:57;6.35;;;0.50;;
74471;SDS011;62920;53.572;10.050;2023-07-20T12:10:26;2.38;;;0.50;;
74471;SDS011;62920;53.572;10.050;2023-07-20T12:12:53;1.98;;;0.50;;
74471;SDS011;62920;53.572;10.050;2023-07-20T12:23:03;2.83;;;0.70;;
74471;SDS011;62920;53.572;10.050;2023-07-20T12:25:44;2.55;;;0.60;;
74471;SDS011;62920;53.572;10.050;2023-07-20T12:28:12;4.53;;;0.80;;
74471;SDS011;62920;53.572;10.050;2023-07-20T12:30:39;4.78;;;0.60;;
74471;SDS011;62920;53.572;10.050;2023-07-20T12:33:05;4.07;;;0.70;;
74471;SDS011;62920;53.572;10.050;2023-07-20T12:35:31;6.05;;;1.20;;
74471;SDS011;62920;53.572;10.050;2023-07-20T12:37:57;6.65;;;0.80;;
74471;SDS011;62920;53.572;10.050;2023-07-20T12:40:23;4.45;;;0.80;;
74471;SDS011;62920;53.572;10.050;2023-07-20T12:42:48;3.70;;;0.70;;
74471;SDS011;62920;53.572;10.050;2023-07-20T12:45:14;6.47;;;0.50;;
74471;SDS011;62920;53.572;10.050;2023-07-20T12:47:39;2.92;;;0.50;;
74471;SDS011;62920;53.572;10.050;2023-07-20T12:50:06;4.82;;;0.60;;
74471;SDS011;62920;53.572;10.050;2023-07-20T12:52:32;5.40;;;0.80;;
74471;SDS011;62920;53.572;10.050;2023-07-20T12:55:00;3.47;;;0.75;;
74471;SDS011;62920;53.572;10.050;2023-07-20T12:57:26;6.82;;;0.80;;
74471;SDS011;62920;53.572;10.050;2023-07-20T12:59:51;4.32;;;0.80;;
74471;SDS011;62920;53.572;10.050;2023-07-20T13:02:17;7.13;;;0.73;;
74471;SDS011;62920;53.572;10.050;2023-07-20T13:04:42;4.60;;;0.90;;
74471;SDS011;62920;53.572;10.050;2023-07-20T13:07:09;4.95;;;0.65;;
74471;SDS011;62920;53.572;10.050;2023-07-20T13:09:35;7.22;;;0.90;;
74471;SDS011;62920;53.572;10.050;2023-07-20T13:12:01;4.18;;;0.88;;
74471;SDS011;62920;53.572;10.050;2023-07-20T13:14:26;6.75;;;1.00;;
74471;SDS011;62920;53.572;10.050;2023-07-20T13:16:54;1.90;;;0.30;;
74471;SDS011;62920;53.572;10.050;2023-07-20T13:19:20;2.05;;;0.40;;
74471;SDS011;62920;53.572;10.050;2023-07-20T13:21:45;2.17;;;0.35;;
74471;SDS011;62920;53.572;10.050;2023-07-20T13:24:11;3.63;;;0.40;;
74471;SDS011;62920;53.572;10.050;2023-07-20T13:26:36;4.43;;;0.50;;
74471;SDS011;62920;53.572;10.050;2023-07-20T13:29:02;5.18;;;0.75;;
74471;SDS011;62920;53.572;10.050;2023-07-20T13:31:27;3.00;;;0.73;;
74471;SDS011;62920;53.572;10.050;2023-07-20T13:33:53;2.80;;;0.55;;
74471;SDS011;62920;53.572;10.050;2023-07-20T13:36:18;4.13;;;0.52;;
74471;SDS011;62920;53.572;10.050;2023-07-20T13:38:45;3.67;;;0.55;;
74471;SDS011;62920;53.572;10.050;2023-07-20T13:41:11;4.22;;;0.63;;
74471;SDS011;62920;53.572;10.050;2023-07-20T13:43:36;2.78;;;0.70;;
74471;SDS011;62920;53.572;10.050;2023-07-20T13:46:02;2.35;;;0.50;;
74471;SDS011;62920;53.572;10.050;2023-07-20T13:48:27;3.13;;;0.60;;
74471;SDS011;62920;53.572;10.050;2023-07-20T13:50:53;1.98;;;0.57;;
74471;SDS011;62920;53.572;10.050;2023-07-20T13:53:19;1.83;;;0.50;;
74471;SDS011;62920;53.572;10.050;2023-07-20T13:55:44;3.22;;;0.55;;
74471;SDS011;62920;53.572;10.050;2023-07-20T13:58:09;4.60;;;0.73;;
74471;SDS011;62920;53.572;10.050;2023-07-20T14:00:35;3.28;;;0.68;;
74471;SDS011;62920;53.572;10.050;2023-07-20T14:03:01;2.17;;;0.73;;
74471;SDS011;62920;53.572;10.050;2023-07-20T14:05:26;3.20;;;0.70;;
74471;SDS011;62920;53.572;10.050;2023-07-20T14:07:53;4.45;;;0.75;;
74471;SDS011;62920;53.572;10.050;2023-07-20T14:10:18;2.55;;;0.60;;
74471;SDS011;62920;53.572;10.050;2023-07-20T14:12:44;2.35;;;0.45;;
74471;SDS011;62920;53.572;10.050;2023-07-20T14:15:10;2.22;;;0.47;;
74471;SDS011;62920;53.572;10.050;2023-07-20T14:17:35;2.72;;;0.43;;
74471;SDS011;62920;53.572;10.050;2023-07-20T14:20:01;2.03;;;0.40;;
74471;SDS011;62920;53.572;10.050;2023-07-20T14:22:27;2.08;;;0.57;;
74471;SDS011;62920;53.572;10.050;2023-07-20T14:24:52;2.75;;;0.52;;
74471;SDS011;62920;53.572;10.050;2023-07-20T14:27:17;2.53;;;0.65;;
74471;SDS011;62920;53.572;10.050;2023-07-20T14:29:43;3.55;;;0.80;;
74471;SDS011;62920;53.572;10.050;2023-07-20T14:32:08;4.13;;;0.70;;
74471;SDS011;62920;53.572;10.050;2023-07-20T14:34:34;3.17;;;0.60;;
74471;SDS011;62920;53.572;10.050;2023-07-20T14:36:59;3.65;;;0.60;;
74471;SDS011;62920;53.572;10.050;2023-07-20T14:39:25;2.13;;;0.50;;
74471;SDS011;62920;53.572;10.050;2023-07-20T14:41:50;2.30;;;0.60;;
74471;SDS011;62920;53.572;10.050;2023-07-20T14:44:16;2.45;;;0.50;;
74471;SDS011;62920;53.572;10.050;2023-07-20T14:46:41;3.63;;;0.52;;
74471;SDS011;62920;53.572;10.050;2023-07-20T14:49:07;2.03;;;0.50;;
74471;SDS011;62920;53.572;10.050;2023-07-20T14:51:32;2.95;;;0.55;;
74471;SDS011;62920;53.572;10.050;2023-07-20T14:54:01;4.00;;;0.57;;
74471;SDS011;62920;53.572;10.050;2023-07-20T14:56:26;3.00;;;0.73;;
74471;SDS011;62920;53.572;10.050;2023-07-20T14:58:52;4.60;;;0.68;;
74471;SDS011;62920;53.572;10.050;2023-07-20T15:01:17;3.53;;;0.80;;